createdAt,value
2023-03-02T00:01:34.971Z,5.95
2023-03-02T00:04:04.205Z,5.54
2023-03-02T00:06:32.364Z,6.49
2023-03-02T00:09:00.906Z,6.80
2023-03-02T00:11:30.149Z,6.96
2023-03-02T00:13:57.277Z,7.04
2023-03-02T00:16:24.520Z,7.17
2023-03-02T00:18:51.645Z,7.31
2023-03-02T00:21:18.454Z,7.16
2023-03-02T00:23:45.392Z,7.11
2023-03-02T00:26:12.363Z,7.16
2023-03-02T00:28:39.351Z,7.08
2023-03-02T00:31:06.920Z,7.13
2023-03-02T00:33:34.915Z,7.11
2023-03-02T00:36:02.864Z,7.09
2023-03-02T00:38:30.284Z,7.12
2023-03-02T00:40:59.528Z,6.93
2023-03-02T00:43:28.318Z,6.81
2023-03-02T00:45:55.886Z,6.91
2023-03-02T00:48:23.370Z,4.64
2023-03-02T00:50:50.421Z,5.47
2023-03-02T00:53:18.300Z,5.21
2023-03-02T00:55:56.484Z,5.75
2023-03-02T00:58:23.403Z,5.85
2023-03-02T01:00:50.353Z,5.96
2023-03-02T01:03:17.397Z,6.10
2023-03-02T01:05:44.334Z,6.03
2023-03-02T01:08:12.160Z,6.07
2023-03-02T01:10:39.440Z,6.18
2023-03-02T01:13:07.273Z,6.24
2023-03-02T01:15:34.840Z,6.27
2023-03-02T01:18:01.846Z,6.28
2023-03-02T01:20:29.630Z,6.16
2023-03-02T01:22:56.787Z,6.09
2023-03-02T01:25:23.640Z,6.11
2023-03-02T01:27:50.577Z,6.12
2023-03-02T01:30:17.596Z,6.05
2023-03-02T01:32:44.519Z,6.05
2023-03-02T01:35:11.754Z,5.78
2023-03-02T01:37:38.669Z,5.79
2023-03-02T01:40:06.947Z,5.93
2023-03-02T01:42:47.676Z,5.60
2023-03-02T01:45:45.813Z,5.58
2023-03-02T01:48:16.001Z,5.22
2023-03-02T01:50:42.991Z,5.29
2023-03-02T01:53:10.019Z,5.71
2023-03-02T01:55:39.195Z,5.49
2023-03-02T01:58:06.953Z,5.74
2023-03-02T02:00:38.287Z,5.95
2023-03-02T02:03:14.799Z,6.08
2023-03-02T02:05:44.830Z,6.02
2023-03-02T02:08:11.767Z,5.85
2023-03-02T02:10:40.153Z,6.11
2023-03-02T02:13:10.992Z,5.93
2023-03-02T02:15:39.233Z,6.06
2023-03-02T02:18:06.826Z,5.97
2023-03-02T02:20:54.337Z,6.25
2023-03-02T02:23:24.158Z,5.83
2023-03-02T02:25:53.705Z,6.24
2023-03-02T02:28:42.795Z,6.22
2023-03-02T02:31:22.633Z,6.28
2023-03-02T02:33:58.449Z,6.40
2023-03-02T02:36:33.910Z,6.36
2023-03-02T02:39:04.755Z,6.35
2023-03-02T02:41:38.970Z,6.59
2023-03-02T02:44:06.959Z,6.07
2023-03-02T02:46:34.651Z,5.66
2023-03-02T02:49:03.843Z,5.47
2023-03-02T02:51:31.040Z,6.06
2023-03-02T02:54:00.751Z,6.05
2023-03-02T02:56:35.521Z,6.36
2023-03-02T02:59:29.216Z,6.08
2023-03-02T03:01:58.069Z,6.45
2023-03-02T03:04:30.135Z,6.31
2023-03-02T03:07:05.399Z,6.45
2023-03-02T03:09:32.826Z,6.63
2023-03-02T03:12:08.801Z,6.76
2023-03-02T03:14:39.813Z,6.69
2023-03-02T03:17:12.377Z,6.79
2023-03-02T03:19:42.832Z,6.76
2023-03-02T03:22:13.276Z,6.54
2023-03-02T03:24:42.593Z,6.36
2023-03-02T03:27:12.504Z,6.60
2023-03-02T03:29:45.179Z,6.61
2023-03-02T03:32:12.227Z,6.51
2023-03-02T03:34:41.051Z,6.22
2023-03-02T03:37:10.668Z,6.43
2023-03-02T03:39:37.945Z,6.72
2023-03-02T03:42:05.911Z,6.51
2023-03-02T03:44:33.636Z,6.46
2023-03-02T03:47:00.974Z,6.40
2023-03-02T03:49:28.186Z,6.26
2023-03-02T03:51:55.513Z,6.21
2023-03-02T03:54:22.596Z,6.46
2023-03-02T03:56:50.912Z,6.38
2023-03-02T03:59:21.958Z,6.64
2023-03-02T04:01:55.218Z,7.09
2023-03-02T04:04:28.998Z,6.99
2023-03-02T04:06:56.016Z,6.41
2023-03-02T04:09:23.735Z,6.95
2023-03-02T04:11:53.820Z,6.31
2023-03-02T04:14:23.427Z,6.29
2023-03-02T04:16:51.031Z,6.20
2023-03-02T04:19:18.088Z,6.83
2023-03-02T04:21:48.183Z,6.01
2023-03-02T04:24:16.823Z,6.36
2023-03-02T04:26:45.695Z,6.25
2023-03-02T04:29:13.397Z,5.96
2023-03-02T04:31:40.510Z,6.05
2023-03-02T04:34:08.757Z,5.76
2023-03-02T04:36:39.238Z,5.66
2023-03-02T04:39:07.509Z,6.12
2023-03-02T04:41:35.119Z,5.90
2023-03-02T04:44:02.202Z,5.47
2023-03-02T04:46:29.413Z,6.10
2023-03-02T04:48:56.836Z,5.59
2023-03-02T04:51:33.431Z,5.41
2023-03-02T04:54:03.483Z,5.55
2023-03-02T04:56:31.300Z,6.10
2023-03-02T04:58:58.693Z,6.09
2023-03-02T05:01:25.845Z,6.71
2023-03-02T05:03:53.433Z,5.72
2023-03-02T05:06:21.954Z,6.24
2023-03-02T05:08:49.605Z,6.57
2023-03-02T05:11:22.558Z,6.66
2023-03-02T05:13:51.440Z,7.11
2023-03-02T05:16:19.650Z,7.08
2023-03-02T05:18:47.596Z,6.98
2023-03-02T05:21:15.917Z,7.35
2023-03-02T05:23:43.735Z,7.43
2023-03-02T05:26:11.397Z,7.44
2023-03-02T05:28:39.180Z,7.63
2023-03-02T05:31:07.349Z,7.40
2023-03-02T05:33:34.838Z,6.29
2023-03-02T05:36:02.041Z,6.60
2023-03-02T05:38:31.693Z,6.78
2023-03-02T05:40:58.811Z,6.49
2023-03-02T05:43:25.839Z,6.10
2023-03-02T05:45:52.875Z,5.74
2023-03-02T05:48:19.833Z,6.19
2023-03-02T05:50:46.822Z,6.66
2023-03-02T05:53:13.764Z,6.19
2023-03-02T05:55:40.769Z,6.29
2023-03-02T05:58:12.002Z,5.58
2023-03-02T06:00:38.906Z,5.72
2023-03-02T06:03:05.879Z,5.73
2023-03-02T06:05:32.891Z,5.25
2023-03-02T06:07:59.840Z,5.53
2023-03-02T06:10:27.252Z,5.56
2023-03-02T06:12:54.305Z,5.65
2023-03-02T06:15:21.651Z,5.72
2023-03-02T06:17:48.958Z,5.41
2023-03-02T06:20:16.826Z,5.70
2023-03-02T06:22:45.644Z,5.96
2023-03-02T06:25:15.545Z,5.89
2023-03-02T06:27:42.419Z,5.89
2023-03-02T06:30:16.292Z,5.41
2023-03-02T06:32:43.710Z,5.80
2023-03-02T06:35:13.719Z,5.68
2023-03-02T06:37:43.739Z,5.61
2023-03-02T06:40:12.374Z,6.41
2023-03-02T06:42:40.121Z,5.77
2023-03-02T06:45:08.742Z,5.80
2023-03-02T06:47:35.689Z,5.88
2023-03-02T06:50:02.748Z,6.29
2023-03-02T06:52:29.925Z,5.93
2023-03-02T06:54:57.038Z,6.31
2023-03-02T06:57:24.177Z,5.96
2023-03-02T06:59:52.450Z,6.37
2023-03-02T07:02:19.387Z,6.26
2023-03-02T07:04:46.425Z,6.33
2023-03-02T07:07:13.486Z,7.12
2023-03-02T07:09:42.589Z,7.08
2023-03-02T07:12:10.144Z,7.32
2023-03-02T07:14:37.410Z,6.74
2023-03-02T07:17:05.466Z,7.34
2023-03-02T07:19:32.485Z,7.43
2023-03-02T07:21:59.488Z,7.27
2023-03-02T07:24:26.496Z,6.43
2023-03-02T07:26:53.475Z,7.20
2023-03-02T07:29:20.516Z,6.85
2023-03-02T07:31:47.614Z,7.13
2023-03-02T07:34:16.045Z,6.94
2023-03-02T07:36:43.077Z,7.75
2023-03-02T07:39:10.112Z,7.24
2023-03-02T07:41:37.268Z,6.60
2023-03-02T07:44:04.269Z,6.93
2023-03-02T07:46:31.286Z,7.17
2023-03-02T07:48:59.390Z,7.40
2023-03-02T07:51:26.504Z,7.58
2023-03-02T07:53:55.567Z,7.21
2023-03-02T07:56:22.589Z,6.75
2023-03-02T07:58:49.599Z,6.70
2023-03-02T08:01:16.580Z,6.99
2023-03-02T08:03:43.732Z,6.86
2023-03-02T08:06:12.710Z,7.22
2023-03-02T08:08:40.169Z,7.13
2023-03-02T08:11:09.666Z,7.45
2023-03-02T08:13:38.948Z,7.64
2023-03-02T08:16:08.418Z,8.57
2023-03-02T08:18:36.585Z,7.27
2023-03-02T08:21:06.508Z,7.21
2023-03-02T08:23:33.420Z,7.73
2023-03-02T08:26:00.491Z,8.26
2023-03-02T08:28:27.686Z,7.81
2023-03-02T08:30:59.360Z,7.79
2023-03-02T08:33:27.985Z,8.11
2023-03-02T08:36:03.462Z,7.61
2023-03-02T08:38:31.831Z,7.71
2023-03-02T08:41:08.095Z,8.20
2023-03-02T08:43:35.245Z,8.56
2023-03-02T08:46:03.409Z,8.34
2023-03-02T08:48:30.792Z,8.22
2023-03-02T08:51:01.001Z,8.56
2023-03-02T08:53:30.972Z,8.40
2023-03-02T08:55:58.063Z,9.20
2023-03-02T08:58:25.650Z,9.60
2023-03-02T09:00:53.410Z,9.29
2023-03-02T09:03:22.595Z,9.16
2023-03-02T09:05:49.566Z,9.40
2023-03-02T09:08:16.786Z,9.58
2023-03-02T09:10:43.766Z,10.05
2023-03-02T09:13:10.826Z,10.27
2023-03-02T09:15:37.938Z,9.63
2023-03-02T09:18:05.254Z,9.68
2023-03-02T09:20:37.108Z,9.88
2023-03-02T09:23:06.237Z,10.02
2023-03-02T09:25:33.267Z,10.05
2023-03-02T09:28:00.331Z,10.35
2023-03-02T09:30:27.522Z,10.01
2023-03-02T09:32:54.718Z,10.93
2023-03-02T09:35:21.843Z,10.67
2023-03-02T09:37:49.019Z,10.90
2023-03-02T09:40:25.369Z,10.82
2023-03-02T09:43:21.763Z,10.54
2023-03-02T09:46:18.685Z,9.63
2023-03-02T09:49:28.738Z,9.32
2023-03-02T09:52:36.924Z,9.43
2023-03-02T09:55:20.157Z,9.08
2023-03-02T09:57:50.023Z,9.57
2023-03-02T10:00:25.909Z,9.22
2023-03-02T10:03:11.343Z,9.11
2023-03-02T10:05:49.351Z,9.26
2023-03-02T10:08:25.958Z,9.28
2023-03-02T10:11:13.868Z,8.95
2023-03-02T10:13:59.301Z,8.66
2023-03-02T10:16:49.956Z,9.19
2023-03-02T10:19:25.641Z,9.21
2023-03-02T10:22:02.338Z,9.07
2023-03-02T10:24:37.441Z,8.81
2023-03-02T10:27:26.375Z,9.12
2023-03-02T10:30:00.250Z,9.79
2023-03-02T10:32:38.554Z,9.65
2023-03-02T10:35:18.666Z,9.31
2023-03-02T10:37:48.586Z,8.91
2023-03-02T10:40:57.289Z,9.02
2023-03-02T10:43:31.033Z,9.12
2023-03-02T10:46:07.914Z,9.52
2023-03-02T10:49:01.411Z,9.55
2023-03-02T10:51:30.704Z,9.43
2023-03-02T10:54:14.160Z,8.97
2023-03-02T10:56:52.414Z,8.70
2023-03-02T10:59:25.428Z,8.73
2023-03-02T11:02:03.424Z,8.81
2023-03-02T11:04:31.534Z,9.05
2023-03-02T11:07:21.443Z,8.78
2023-03-02T11:10:00.551Z,9.26
2023-03-02T11:12:28.804Z,9.30
2023-03-02T11:15:04.225Z,9.36
2023-03-02T11:17:40.598Z,8.98
2023-03-02T11:20:17.245Z,9.25
2023-03-02T11:22:57.004Z,9.43
2023-03-02T11:25:30.421Z,9.17
2023-03-02T11:28:10.956Z,9.63
2023-03-02T11:30:48.555Z,9.09
2023-03-02T11:33:36.457Z,9.17
2023-03-02T11:36:19.200Z,9.25
2023-03-02T11:38:50.308Z,9.40
2023-03-02T11:41:30.165Z,9.71
2023-03-02T11:44:19.044Z,9.68
2023-03-02T11:47:03.163Z,9.99
2023-03-02T11:49:40.303Z,10.23
2023-03-02T11:52:28.692Z,9.47
2023-03-02T11:55:00.729Z,10.02
2023-03-02T11:57:39.781Z,10.15
2023-03-02T12:00:19.459Z,9.71
2023-03-02T12:02:48.711Z,10.48
2023-03-02T12:05:33.286Z,10.62
2023-03-02T12:08:02.772Z,10.44
2023-03-02T12:10:44.443Z,10.91
2023-03-02T12:13:26.073Z,11.34
2023-03-02T12:15:53.309Z,11.58
2023-03-02T12:18:23.404Z,12.03
2023-03-02T12:21:09.684Z,12.26
2023-03-02T12:23:56.206Z,12.23
2023-03-02T12:26:32.029Z,12.52
2023-03-02T12:29:23.807Z,12.94
2023-03-02T12:31:56.367Z,13.11
2023-03-02T12:34:33.365Z,12.71
2023-03-02T12:37:22.692Z,13.13
2023-03-02T12:39:57.296Z,13.04
2023-03-02T12:42:49.798Z,13.03
2023-03-02T12:45:40.483Z,13.00
2023-03-02T12:48:25.345Z,12.02
2023-03-02T12:51:01.848Z,12.87
2023-03-02T12:53:29.896Z,12.24
2023-03-02T12:55:56.958Z,12.92
2023-03-02T12:58:32.870Z,12.30
2023-03-02T13:01:02.515Z,11.40
2023-03-02T13:03:31.673Z,11.02
2023-03-02T13:06:15.824Z,10.79
2023-03-02T13:08:53.349Z,10.70
2023-03-02T13:11:33.405Z,10.85
2023-03-02T13:14:03.918Z,10.64
2023-03-02T13:16:33.842Z,11.29
2023-03-02T13:19:11.712Z,10.61
2023-03-02T13:21:42.573Z,10.20
2023-03-02T13:24:28.232Z,11.01
2023-03-02T13:26:59.723Z,10.89
2023-03-02T13:29:28.323Z,10.31
2023-03-02T13:31:56.132Z,10.56
2023-03-02T13:34:34.749Z,10.31
2023-03-02T13:37:04.100Z,10.44
2023-03-02T13:39:34.604Z,10.34
2023-03-02T13:42:03.589Z,10.04
2023-03-02T13:44:35.668Z,10.01
2023-03-02T13:47:03.186Z,9.52
2023-03-02T13:49:33.352Z,9.87
2023-03-02T13:52:27.842Z,9.32
2023-03-02T13:54:54.894Z,9.45
2023-03-02T13:57:30.653Z,9.43
2023-03-02T14:00:01.705Z,9.90
2023-03-02T14:02:30.364Z,10.51
2023-03-02T14:04:57.975Z,10.00
2023-03-02T14:07:25.087Z,10.39
2023-03-02T14:09:52.103Z,10.24
2023-03-02T14:12:31.272Z,9.64
2023-03-02T14:15:02.237Z,9.48
2023-03-02T14:17:29.721Z,10.00
2023-03-02T14:19:57.114Z,9.57
2023-03-02T14:22:27.028Z,9.85
2023-03-02T14:24:56.206Z,9.33
2023-03-02T14:27:24.997Z,9.80
2023-03-02T14:29:52.318Z,9.70
2023-03-02T14:32:19.510Z,9.61
2023-03-02T14:34:47.003Z,9.50
2023-03-02T14:37:17.088Z,10.01
2023-03-02T14:39:47.791Z,10.25
2023-03-02T14:42:17.210Z,10.50
2023-03-02T14:44:46.189Z,11.07
2023-03-02T14:47:14.082Z,10.88
2023-03-02T14:49:41.116Z,10.99
2023-03-02T14:52:20.186Z,10.81
2023-03-02T14:54:54.028Z,10.26
2023-03-02T14:57:25.588Z,10.49
2023-03-02T14:59:53.610Z,10.18
2023-03-02T15:02:25.969Z,9.62
2023-03-02T15:04:57.457Z,9.90
2023-03-02T15:07:26.899Z,10.07
2023-03-02T15:09:55.546Z,9.82
2023-03-02T15:12:22.666Z,9.68
2023-03-02T15:14:54.022Z,9.81
2023-03-02T15:17:21.039Z,9.21
2023-03-02T15:19:48.355Z,9.36
2023-03-02T15:22:18.066Z,9.70
2023-03-02T15:24:45.069Z,9.05
2023-03-02T15:27:12.021Z,9.47
2023-03-02T15:29:39.028Z,8.88
2023-03-02T15:32:06.263Z,8.29
2023-03-02T15:34:33.400Z,8.80
2023-03-02T15:37:00.381Z,9.64
2023-03-02T15:39:27.357Z,9.90
2023-03-02T15:41:56.468Z,10.35
2023-03-02T15:44:24.703Z,10.43
2023-03-02T15:46:57.253Z,10.56
2023-03-02T15:49:27.483Z,10.83
2023-03-02T15:51:57.827Z,10.84
2023-03-02T15:54:26.418Z,11.08
2023-03-02T15:56:53.807Z,11.14
2023-03-02T15:59:31.368Z,11.42
2023-03-02T16:02:01.786Z,11.53
2023-03-02T16:04:34.715Z,11.65
2023-03-02T16:07:02.417Z,11.71
2023-03-02T16:09:31.154Z,11.71
2023-03-02T16:11:58.280Z,11.72
2023-03-02T16:14:27.281Z,11.63
2023-03-02T16:16:54.336Z,11.76
2023-03-02T16:19:23.364Z,11.76
2023-03-02T16:21:50.256Z,11.75
2023-03-02T16:24:19.477Z,11.89
2023-03-02T16:26:46.400Z,11.92
2023-03-02T16:29:15.441Z,12.00
2023-03-02T16:31:45.244Z,11.97
2023-03-02T16:34:12.066Z,11.81
2023-03-02T16:36:40.928Z,11.95
2023-03-02T16:39:09.734Z,11.88
2023-03-02T16:41:37.714Z,11.74
2023-03-02T16:44:04.915Z,11.75
2023-03-02T16:46:36.559Z,11.77
2023-03-02T16:49:05.173Z,11.57
2023-03-02T16:51:35.004Z,11.54
2023-03-02T16:54:02.266Z,11.63
2023-03-02T16:56:29.404Z,11.62
2023-03-02T16:58:58.233Z,11.65
2023-03-02T17:01:26.822Z,11.54
2023-03-02T17:03:54.033Z,11.42
2023-03-02T17:06:24.165Z,11.41
2023-03-02T17:08:53.632Z,11.50
2023-03-02T17:11:21.334Z,11.35
2023-03-02T17:13:48.285Z,11.40
2023-03-02T17:16:17.116Z,11.36
2023-03-02T17:18:47.334Z,11.33
2023-03-02T17:21:16.765Z,11.20
2023-03-02T17:23:44.863Z,11.28
2023-03-02T17:26:11.833Z,11.34
2023-03-02T17:28:39.522Z,11.17
2023-03-02T17:31:07.173Z,11.16
2023-03-02T17:33:34.745Z,11.27
2023-03-02T17:36:07.591Z,11.23
2023-03-02T17:38:34.680Z,11.17
2023-03-02T17:41:03.764Z,11.17
2023-03-02T17:43:35.729Z,11.04
2023-03-02T17:46:13.765Z,10.99
2023-03-02T17:48:41.961Z,11.04
2023-03-02T17:51:09.218Z,11.07
2023-03-02T17:53:36.395Z,11.11
2023-03-02T17:56:03.398Z,11.02
2023-03-02T17:58:42.808Z,11.10
2023-03-02T18:01:12.563Z,11.02
2023-03-02T18:03:39.675Z,11.04
2023-03-02T18:06:07.031Z,11.19
2023-03-02T18:08:33.963Z,11.23
2023-03-02T18:11:00.994Z,11.20
2023-03-02T18:13:28.012Z,11.01
2023-03-02T18:15:55.090Z,10.89
2023-03-02T18:18:22.301Z,10.94
2023-03-02T18:20:49.232Z,10.87
2023-03-02T18:23:16.394Z,10.89
2023-03-02T18:25:43.343Z,10.77
2023-03-02T18:28:10.310Z,10.82
2023-03-02T18:30:37.267Z,10.69
2023-03-02T18:33:04.261Z,10.84
2023-03-02T18:35:31.644Z,10.80
2023-03-02T18:37:58.674Z,10.83
2023-03-02T18:40:25.665Z,10.78
2023-03-02T18:42:52.599Z,10.84
2023-03-02T18:45:27.623Z,10.71
2023-03-02T18:47:55.204Z,10.75
2023-03-02T18:50:23.251Z,10.59
2023-03-02T18:52:53.043Z,10.72
2023-03-02T18:55:25.047Z,10.62
2023-03-02T18:57:54.127Z,10.66
2023-03-02T19:00:27.727Z,10.59
2023-03-02T19:02:59.366Z,10.51
2023-03-02T19:05:27.289Z,10.44
2023-03-02T19:07:55.035Z,10.52
2023-03-02T19:10:21.945Z,10.57
2023-03-02T19:12:48.973Z,10.63
2023-03-02T19:15:16.092Z,10.58
2023-03-02T19:17:43.718Z,10.62
2023-03-02T19:20:15.912Z,10.66
2023-03-02T19:22:42.884Z,10.61
2023-03-02T19:25:10.131Z,10.64
2023-03-02T19:27:37.192Z,10.66
2023-03-02T19:30:05.798Z,10.52
2023-03-02T19:32:32.803Z,10.57
2023-03-02T19:35:00.158Z,10.60
2023-03-02T19:37:27.165Z,10.61
2023-03-02T19:39:54.307Z,10.62
2023-03-02T19:42:21.350Z,10.47
2023-03-02T19:44:48.239Z,10.48
2023-03-02T19:47:15.211Z,10.39
2023-03-02T19:49:42.202Z,10.04
2023-03-02T19:52:09.547Z,10.16
2023-03-02T19:54:36.482Z,10.09
2023-03-02T19:57:03.882Z,10.05
2023-03-02T19:59:32.731Z,10.02
2023-03-02T20:01:59.757Z,9.96
2023-03-02T20:04:27.022Z,9.91
2023-03-02T20:06:54.031Z,9.68
2023-03-02T20:09:21.713Z,9.78
2023-03-02T20:11:48.715Z,9.80
2023-03-02T20:14:27.813Z,9.88
2023-03-02T20:17:00.890Z,9.74
2023-03-02T20:19:27.792Z,9.91
2023-03-02T20:21:54.685Z,9.78
2023-03-02T20:24:21.616Z,9.91
2023-03-02T20:26:48.645Z,9.96
2023-03-02T20:29:16.544Z,9.88
2023-03-02T20:31:44.066Z,9.97
2023-03-02T20:34:16.712Z,9.94
2023-03-02T20:36:44.349Z,9.88
2023-03-02T20:39:19.426Z,9.76
2023-03-02T20:41:46.830Z,9.47
2023-03-02T20:44:14.864Z,9.44
2023-03-02T20:46:49.034Z,9.69
2023-03-02T20:49:16.636Z,9.80
2023-03-02T20:51:49.524Z,9.57
2023-03-02T20:54:17.045Z,9.56
2023-03-02T20:56:44.032Z,9.16
2023-03-02T20:59:11.000Z,9.31
2023-03-02T21:01:37.965Z,9.43
2023-03-02T21:04:05.114Z,9.44
2023-03-02T21:06:34.629Z,9.48
2023-03-02T21:09:03.514Z,9.50
2023-03-02T21:11:30.704Z,9.45
2023-03-02T21:13:59.622Z,9.55
2023-03-02T21:16:30.256Z,9.66
2023-03-02T21:18:57.101Z,9.67
2023-03-02T21:21:39.427Z,9.54
2023-03-02T21:24:09.637Z,9.55
2023-03-02T21:26:37.101Z,9.55
2023-03-02T21:29:05.638Z,9.56
2023-03-02T21:31:33.266Z,9.58
2023-03-02T21:34:00.956Z,9.62
2023-03-02T21:36:28.549Z,9.43
2023-03-02T21:38:56.280Z,9.58
2023-03-02T21:41:23.687Z,9.74
2023-03-02T21:43:50.964Z,9.83
2023-03-02T21:46:21.923Z,9.81
2023-03-02T21:48:50.106Z,9.66
2023-03-02T21:51:17.559Z,9.63
2023-03-02T21:53:44.861Z,9.62
2023-03-02T21:56:20.678Z,9.74
2023-03-02T21:58:56.524Z,9.54
2023-03-02T22:01:25.110Z,9.73
2023-03-02T22:03:52.398Z,9.73
2023-03-02T22:06:25.266Z,9.70
2023-03-02T22:08:52.770Z,9.66
2023-03-02T22:11:29.280Z,9.72
2023-03-02T22:13:59.390Z,9.74
2023-03-02T22:16:36.305Z,9.83
2023-03-02T22:19:17.949Z,9.83
2023-03-02T22:21:48.107Z,9.87
2023-03-02T22:24:25.731Z,9.91
2023-03-02T22:27:04.779Z,9.87
2023-03-02T22:29:43.584Z,9.81
2023-03-02T22:32:20.974Z,9.75
2023-03-02T22:34:50.958Z,9.52
2023-03-02T22:37:19.779Z,9.68
2023-03-02T22:39:48.368Z,9.75
2023-03-02T22:42:20.984Z,9.77
2023-03-02T22:45:12.998Z,9.78
2023-03-02T22:47:39.966Z,9.83
2023-03-02T22:50:23.144Z,9.85
2023-03-02T22:52:50.328Z,9.84
2023-03-02T22:55:43.644Z,9.68
2023-03-02T22:58:30.376Z,9.81
2023-03-02T23:01:00.546Z,9.82
2023-03-02T23:03:39.391Z,9.86
2023-03-02T23:06:45.303Z,9.61
2023-03-02T23:09:16.282Z,9.81
2023-03-02T23:11:45.256Z,9.78
2023-03-02T23:14:39.570Z,9.81
2023-03-02T23:17:15.058Z,9.66
2023-03-02T23:19:41.994Z,9.57
2023-03-02T23:22:09.678Z,9.67
2023-03-02T23:24:37.038Z,9.66
2023-03-02T23:27:04.197Z,9.68
2023-03-02T23:29:31.216Z,9.83
2023-03-02T23:31:58.502Z,9.63
2023-03-02T23:34:25.617Z,9.65
2023-03-02T23:36:52.524Z,9.72
2023-03-02T23:39:19.479Z,9.78
2023-03-02T23:41:46.493Z,9.53
2023-03-02T23:44:13.476Z,9.58
2023-03-02T23:46:40.736Z,9.60
2023-03-02T23:49:07.668Z,9.68
2023-03-02T23:51:34.663Z,9.62
2023-03-02T23:54:04.176Z,9.58
2023-03-02T23:56:31.919Z,9.70
2023-03-02T23:58:59.647Z,9.77
